Terminal Aerodrome Forecast
Issued by NWS Wilmington, NC

Current Version | Previous Version | Text Only | Print | Product List | Glossary On
Versions: 1 2 3 4 5 6 7 8 9 10 11 12 13 14 15 16
000
FTUS42 KILM 292326
TAFMYR
TAF
KMYR 292326Z 3000/3024 20011KT P6SM FEW060 FEW250
     FM300300 24005KT P6SM FEW250
     FM301500 23006KT P6SM FEW040 FEW250
     FM301700 20015G22KT P6SM VCSH SCT050 SCT250
      AMD LTD TO CLD VIS AND WIND 3004/3011=

USA.gov is the U.S. government's official web portal to all federal, state and local government web resources and services.